createdAt,value
2019-03-19T00:00:35.166Z,99.90
2019-03-19T00:03:05.434Z,99.90
2019-03-19T00:05:34.808Z,99.90
2019-03-19T00:08:07.130Z,99.90
2019-03-19T00:10:36.569Z,99.90
2019-03-19T00:13:06.081Z,99.90
2019-03-19T00:15:38.356Z,99.90
2019-03-19T00:18:07.705Z,99.90
2019-03-19T00:20:37.111Z,99.90
2019-03-19T00:23:06.520Z,99.90
2019-03-19T00:25:35.891Z,99.90
2019-03-19T00:28:05.517Z,99.90
2019-03-19T00:30:35.107Z,99.90
2019-03-19T00:33:04.942Z,99.90
2019-03-19T00:35:34.352Z,99.90
2019-03-19T00:38:04.006Z,99.90
2019-03-19T00:40:33.414Z,99.90
2019-03-19T00:43:02.763Z,99.90
2019-03-19T00:45:32.374Z,99.90
2019-03-19T00:48:01.794Z,99.90
2019-03-19T00:50:31.154Z,99.90
2019-03-19T00:53:00.498Z,99.90
2019-03-19T00:55:39.924Z,99.90
2019-03-19T00:58:00.932Z,99.90
2019-03-19T01:00:30.280Z,99.90
2019-03-19T01:02:59.800Z,99.90
2019-03-19T01:05:29.207Z,99.90
2019-03-19T01:07:58.555Z,99.90
2019-03-19T01:10:28.031Z,99.90
2019-03-19T01:12:57.519Z,99.90
2019-03-19T01:15:26.901Z,99.90
2019-03-19T01:17:56.337Z,99.90
2019-03-19T01:20:27.310Z,99.90
2019-03-19T01:22:56.656Z,99.90
2019-03-19T01:25:25.990Z,99.90
2019-03-19T01:27:58.379Z,99.90
2019-03-19T01:30:27.762Z,99.90
2019-03-19T01:32:57.268Z,99.90
2019-03-19T01:35:26.598Z,99.90
2019-03-19T01:37:57.593Z,99.90
2019-03-19T01:40:26.947Z,99.90
2019-03-19T01:42:56.366Z,99.90
2019-03-19T01:45:25.783Z,99.90
2019-03-19T01:47:55.143Z,99.90
2019-03-19T01:50:27.121Z,99.90
2019-03-19T01:52:56.482Z,99.90
2019-03-19T01:55:27.553Z,99.90
2019-03-19T01:57:56.969Z,99.90
2019-03-19T02:00:26.444Z,99.90
2019-03-19T02:02:55.802Z,99.90
2019-03-19T02:05:25.306Z,99.90
2019-03-19T02:07:54.638Z,99.90
2019-03-19T02:10:26.281Z,99.90
2019-03-19T02:12:55.724Z,99.90
2019-03-19T02:15:25.081Z,99.90
2019-03-19T02:17:55.270Z,99.90
2019-03-19T02:20:24.726Z,99.90
2019-03-19T02:22:54.063Z,99.90
2019-03-19T02:25:23.406Z,99.90
2019-03-19T02:27:52.842Z,99.90
2019-03-19T02:30:22.260Z,99.90
2019-03-19T02:32:51.678Z,99.90
2019-03-19T02:35:21.037Z,99.90
2019-03-19T02:37:50.375Z,99.90
2019-03-19T02:40:19.803Z,99.90
2019-03-19T02:42:49.417Z,99.90
2019-03-19T02:45:18.861Z,99.90
2019-03-19T02:47:48.191Z,99.90
2019-03-19T02:50:18.198Z,99.90
2019-03-19T02:52:47.661Z,99.90
2019-03-19T02:55:18.288Z,99.90
2019-03-19T02:57:47.617Z,99.90
2019-03-19T03:00:17.989Z,99.90
2019-03-19T03:02:47.554Z,99.90
2019-03-19T03:05:18.643Z,99.90
2019-03-19T03:07:48.125Z,99.90
2019-03-19T03:10:18.635Z,99.90
2019-03-19T03:12:48.007Z,99.90
2019-03-19T03:15:17.403Z,99.90
2019-03-19T03:17:46.964Z,99.90
2019-03-19T03:20:16.845Z,99.90
2019-03-19T03:22:46.207Z,99.90
2019-03-19T03:25:19.168Z,99.90
2019-03-19T03:27:48.580Z,99.90
2019-03-19T03:30:25.056Z,99.90
2019-03-19T03:32:54.461Z,99.90
2019-03-19T03:35:23.814Z,99.90
2019-03-19T03:37:53.319Z,99.90
2019-03-19T03:40:22.758Z,99.90
2019-03-19T03:42:52.155Z,99.90
2019-03-19T03:45:22.358Z,99.90
2019-03-19T03:47:51.827Z,99.90
2019-03-19T03:50:21.203Z,99.90
2019-03-19T03:52:50.686Z,99.90
2019-03-19T03:55:20.662Z,99.90
2019-03-19T03:57:50.129Z,99.90
2019-03-19T04:00:23.625Z,99.90
2019-03-19T04:02:53.051Z,99.90
2019-03-19T04:05:22.540Z,99.90
2019-03-19T04:07:52.055Z,99.90
2019-03-19T04:10:21.462Z,99.90
2019-03-19T04:12:50.930Z,99.90
2019-03-19T04:15:20.319Z,99.90
2019-03-19T04:17:49.703Z,99.90
2019-03-19T04:20:19.592Z,99.90
2019-03-19T04:22:48.964Z,99.90
2019-03-19T04:25:21.019Z,99.90
2019-03-19T04:27:50.353Z,99.90
2019-03-19T04:30:20.449Z,99.90
2019-03-19T04:32:49.796Z,99.90
2019-03-19T04:35:20.313Z,99.90
2019-03-19T04:37:49.730Z,99.90
2019-03-19T04:40:19.161Z,99.90
2019-03-19T04:42:48.539Z,99.90
2019-03-19T04:45:18.023Z,99.90
2019-03-19T04:47:47.435Z,99.90
2019-03-19T04:50:18.331Z,99.90
2019-03-19T04:52:47.690Z,99.90
2019-03-19T04:55:17.476Z,99.90
2019-03-19T04:57:47.801Z,99.90
2019-03-19T05:00:18.300Z,99.90
2019-03-19T05:02:47.865Z,99.90
2019-03-19T05:05:17.380Z,99.90
2019-03-19T05:07:46.742Z,99.90
2019-03-19T05:10:19.339Z,99.90
2019-03-19T05:12:49.151Z,99.90
2019-03-19T05:15:18.704Z,99.90
2019-03-19T05:17:48.086Z,99.90
2019-03-19T05:20:18.226Z,99.90
2019-03-19T05:22:47.898Z,99.90
2019-03-19T05:25:17.535Z,99.90
2019-03-19T05:27:46.930Z,99.90
2019-03-19T05:30:20.020Z,99.90
2019-03-19T05:32:49.431Z,99.90
2019-03-19T05:35:18.783Z,99.90
2019-03-19T05:37:48.224Z,99.90
2019-03-19T05:40:19.080Z,99.90
2019-03-19T05:42:48.687Z,99.90
2019-03-19T05:45:18.120Z,99.90
2019-03-19T05:47:47.470Z,99.90
2019-03-19T05:50:21.996Z,99.90
2019-03-19T05:52:51.434Z,99.90
2019-03-19T05:55:20.783Z,99.90
2019-03-19T05:57:50.614Z,99.90
2019-03-19T06:00:37.415Z,99.90
2019-03-19T06:03:07.228Z,99.90
2019-03-19T06:05:36.609Z,99.90
2019-03-19T06:08:07.477Z,99.90
2019-03-19T06:10:38.071Z,99.90
2019-03-19T06:13:07.430Z,99.90
2019-03-19T06:15:36.775Z,99.90
2019-03-19T06:18:06.278Z,99.90
2019-03-19T06:20:35.708Z,99.90
2019-03-19T06:23:05.675Z,99.90
2019-03-19T06:25:35.134Z,99.90
2019-03-19T06:28:04.738Z,99.90
2019-03-19T06:30:34.096Z,99.90
2019-03-19T06:33:05.315Z,99.90
2019-03-19T06:35:34.647Z,99.90
2019-03-19T06:38:04.136Z,99.90
2019-03-19T06:40:33.542Z,99.90
2019-03-19T06:43:05.074Z,99.90
2019-03-19T06:45:34.420Z,99.90
2019-03-19T06:48:03.852Z,99.90
2019-03-19T06:50:33.210Z,99.90
2019-03-19T06:53:04.220Z,99.90
2019-03-19T06:55:33.556Z,99.90
2019-03-19T06:58:10.469Z,99.90
2019-03-19T07:00:33.975Z,99.90
2019-03-19T07:03:03.347Z,99.90
2019-03-19T07:05:32.769Z,99.90
2019-03-19T07:08:02.113Z,99.90
2019-03-19T07:10:31.533Z,99.90
2019-03-19T07:13:00.873Z,99.90
2019-03-19T07:15:30.223Z,99.90
2019-03-19T07:18:00.031Z,99.90
2019-03-19T07:20:30.140Z,99.90
2019-03-19T07:22:59.487Z,99.90
2019-03-19T07:25:28.875Z,99.90
2019-03-19T07:27:59.815Z,99.90
2019-03-19T07:30:29.619Z,99.90
2019-03-19T07:32:59.055Z,99.90
2019-03-19T07:35:28.398Z,99.90
2019-03-19T07:37:57.784Z,99.90
2019-03-19T07:40:27.123Z,99.90
2019-03-19T07:42:56.623Z,99.90
2019-03-19T07:45:28.971Z,99.90
2019-03-19T07:47:58.359Z,99.90
2019-03-19T07:50:27.772Z,99.90
2019-03-19T07:52:57.137Z,99.90
2019-03-19T07:55:26.579Z,99.90
2019-03-19T07:57:55.957Z,99.90
2019-03-19T08:00:25.309Z,99.90
2019-03-19T08:02:54.682Z,99.90
2019-03-19T08:05:32.628Z,99.90
2019-03-19T08:07:55.131Z,99.90
2019-03-19T08:10:26.028Z,99.90
2019-03-19T08:12:55.834Z,99.90
2019-03-19T08:15:25.194Z,99.90
2019-03-19T08:17:54.684Z,99.90
2019-03-19T08:20:24.068Z,99.90
2019-03-19T08:22:53.564Z,99.90
2019-03-19T08:25:22.968Z,99.90
2019-03-19T08:27:54.122Z,99.90
2019-03-19T08:30:25.274Z,99.90
2019-03-19T08:32:54.866Z,99.90
2019-03-19T08:35:24.363Z,99.90
2019-03-19T08:37:53.850Z,99.90
2019-03-19T08:40:23.282Z,99.90
2019-03-19T08:42:52.695Z,99.90
2019-03-19T08:45:26.628Z,99.90
2019-03-19T08:47:56.052Z,99.90
2019-03-19T08:50:26.188Z,99.90
2019-03-19T08:52:55.855Z,99.90
2019-03-19T08:55:25.437Z,99.90
2019-03-19T08:57:54.816Z,99.90
2019-03-19T09:00:25.804Z,99.90
2019-03-19T09:02:55.149Z,99.90
2019-03-19T09:05:24.592Z,99.90
2019-03-19T09:07:53.932Z,99.90
2019-03-19T09:10:23.286Z,99.90
2019-03-19T09:12:52.643Z,99.90
2019-03-19T09:15:26.818Z,99.90
2019-03-19T09:17:56.181Z,99.90
2019-03-19T09:20:25.611Z,99.90
2019-03-19T09:22:54.980Z,99.90
2019-03-19T09:25:24.329Z,99.90
2019-03-19T09:27:53.676Z,99.90
2019-03-19T09:30:23.977Z,99.90
2019-03-19T09:32:53.326Z,99.90
2019-03-19T09:35:22.759Z,99.90
2019-03-19T09:37:58.240Z,99.90
2019-03-19T09:40:25.384Z,99.90
2019-03-19T09:42:55.092Z,99.90
2019-03-19T09:45:24.471Z,99.90
2019-03-19T09:47:53.812Z,99.90
2019-03-19T09:50:27.528Z,99.90
2019-03-19T09:52:56.943Z,99.90
2019-03-19T09:55:26.303Z,99.90
2019-03-19T09:57:55.666Z,99.90
2019-03-19T10:00:25.072Z,99.90
2019-03-19T10:02:54.426Z,99.90
2019-03-19T10:05:23.789Z,99.90
2019-03-19T10:07:55.468Z,99.90
2019-03-19T10:10:24.909Z,99.90
2019-03-19T10:12:54.448Z,99.90
2019-03-19T10:15:23.833Z,99.90
2019-03-19T10:17:53.314Z,99.90
2019-03-19T10:20:24.792Z,99.90
2019-03-19T10:22:54.233Z,99.90
2019-03-19T10:25:25.336Z,99.90
2019-03-19T10:27:54.719Z,99.90
2019-03-19T10:30:24.895Z,99.90
2019-03-19T10:32:54.340Z,99.90
2019-03-19T10:35:25.401Z,99.90
2019-03-19T10:37:54.884Z,99.90
2019-03-19T10:40:26.458Z,99.90
2019-03-19T10:42:55.093Z,99.90
2019-03-19T10:45:24.810Z,99.90
2019-03-19T10:47:54.229Z,99.90
2019-03-19T10:50:24.950Z,99.90
2019-03-19T10:52:54.534Z,99.90
2019-03-19T10:55:26.895Z,99.90
2019-03-19T10:57:56.251Z,99.90
2019-03-19T11:00:26.251Z,99.90
2019-03-19T11:02:55.768Z,99.90
2019-03-19T11:05:25.661Z,99.90
2019-03-19T11:07:55.049Z,99.90
2019-03-19T11:10:24.481Z,99.90
2019-03-19T11:12:55.367Z,99.90
2019-03-19T11:15:24.829Z,99.90
2019-03-19T11:17:54.163Z,99.90
2019-03-19T11:20:23.504Z,99.90
2019-03-19T11:22:52.933Z,99.90
2019-03-19T11:25:24.727Z,99.90
2019-03-19T11:27:54.222Z,99.90
2019-03-19T11:30:28.484Z,99.90
2019-03-19T11:32:58.987Z,99.90
2019-03-19T11:35:28.671Z,99.90
2019-03-19T11:37:58.592Z,99.90
2019-03-19T11:40:28.058Z,99.90
2019-03-19T11:42:57.413Z,99.90
2019-03-19T11:45:26.848Z,99.90
2019-03-19T11:47:56.292Z,99.90
2019-03-19T11:50:32.893Z,99.90
2019-03-19T11:53:01.418Z,99.40
2019-03-19T11:55:30.786Z,99.70
2019-03-19T11:58:00.145Z,99.40
2019-03-19T12:00:34.774Z,98.90
2019-03-19T12:03:14.791Z,98.90
2019-03-19T12:05:35.895Z,99.30
2019-03-19T12:08:06.158Z,97.90
2019-03-19T12:10:35.507Z,98.50
2019-03-19T12:13:05.511Z,98.70
2019-03-19T12:15:34.956Z,98.20
2019-03-19T12:18:04.947Z,98.60
2019-03-19T12:20:34.378Z,98.80
2019-03-19T12:23:03.896Z,98.00
2019-03-19T12:25:33.308Z,97.80
2019-03-19T12:28:02.679Z,96.50
2019-03-19T12:30:32.157Z,98.70
2019-03-19T12:33:01.494Z,98.80
2019-03-19T12:35:31.073Z,99.10
2019-03-19T12:38:00.679Z,99.90
2019-03-19T12:40:36.746Z,97.60
2019-03-19T12:43:01.114Z,99.40
2019-03-19T12:45:30.608Z,99.20
2019-03-19T12:47:59.990Z,98.20
2019-03-19T12:50:29.399Z,98.40
2019-03-19T12:52:58.751Z,98.20
2019-03-19T12:55:28.119Z,98.10
2019-03-19T12:57:57.548Z,97.80
2019-03-19T13:00:55.473Z,98.00
2019-03-19T13:02:59.727Z,98.20
2019-03-19T13:05:31.046Z,97.70
2019-03-19T13:08:00.673Z,96.70
2019-03-19T13:10:30.115Z,97.50
2019-03-19T13:12:59.531Z,97.50
2019-03-19T13:15:28.915Z,97.20
2019-03-19T13:17:58.266Z,94.50
2019-03-19T13:20:27.689Z,95.50
2019-03-19T13:22:57.061Z,95.10
2019-03-19T13:25:26.740Z,95.60
2019-03-19T13:27:56.115Z,95.80
2019-03-19T13:30:26.842Z,97.10
2019-03-19T13:32:56.251Z,96.30
2019-03-19T13:35:25.683Z,97.30
2019-03-19T13:37:55.244Z,96.90
2019-03-19T13:40:24.643Z,96.70
2019-03-19T13:42:54.094Z,96.60
2019-03-19T13:45:24.291Z,98.10
2019-03-19T13:47:53.740Z,96.50
2019-03-19T13:50:25.074Z,97.20
2019-03-19T13:52:56.009Z,97.40
2019-03-19T13:55:25.703Z,96.30
2019-03-19T13:58:14.451Z,97.30
2019-03-19T14:00:43.813Z,96.20
2019-03-19T14:03:13.165Z,96.70
2019-03-19T14:05:42.514Z,97.10
2019-03-19T14:08:11.865Z,97.90
2019-03-19T14:10:41.224Z,96.90
2019-03-19T14:13:10.591Z,96.70
2019-03-19T14:15:39.926Z,97.70
2019-03-19T14:18:09.454Z,96.50
2019-03-19T14:20:38.895Z,96.20
2019-03-19T14:23:08.251Z,97.20
2019-03-19T14:25:37.617Z,97.00
2019-03-19T14:28:07.162Z,97.60
2019-03-19T14:30:36.531Z,96.90
2019-03-19T14:33:05.882Z,96.60
2019-03-19T14:35:37.622Z,96.80
2019-03-19T14:38:06.289Z,97.60
2019-03-19T14:40:35.796Z,97.10
2019-03-19T14:43:05.344Z,95.90
2019-03-19T14:45:34.768Z,96.50
2019-03-19T14:48:06.122Z,96.10
2019-03-19T14:50:35.254Z,96.50
2019-03-19T14:53:05.594Z,97.00
2019-03-19T14:55:34.999Z,94.60
2019-03-19T14:58:05.600Z,94.70
2019-03-19T15:00:35.541Z,94.70
2019-03-19T15:03:05.598Z,95.60
2019-03-19T15:05:34.952Z,95.30
2019-03-19T15:08:04.519Z,95.40
2019-03-19T15:10:33.899Z,94.20
2019-03-19T15:13:03.264Z,94.90
2019-03-19T15:15:32.708Z,94.80
2019-03-19T15:18:02.043Z,95.40
2019-03-19T15:20:31.391Z,95.10
2019-03-19T15:23:03.701Z,96.00
2019-03-19T15:25:33.325Z,95.60
2019-03-19T15:28:02.751Z,95.90
2019-03-19T15:30:32.341Z,96.30
2019-03-19T15:33:01.768Z,96.30
2019-03-19T15:35:31.256Z,96.30
2019-03-19T15:38:00.621Z,96.90
2019-03-19T15:40:30.075Z,97.30
2019-03-19T15:43:00.919Z,97.10
2019-03-19T15:45:31.291Z,97.60
2019-03-19T15:48:00.719Z,96.80
2019-03-19T15:50:30.060Z,96.50
2019-03-19T15:52:59.511Z,97.00
2019-03-19T15:55:28.923Z,96.20
2019-03-19T15:57:58.268Z,96.10
2019-03-19T16:00:27.696Z,96.30
2019-03-19T16:02:57.044Z,96.50
2019-03-19T16:05:26.469Z,96.40
2019-03-19T16:07:56.000Z,96.90
2019-03-19T16:10:25.418Z,97.30
2019-03-19T16:12:54.804Z,97.40
2019-03-19T16:15:24.221Z,97.20
2019-03-19T16:17:53.591Z,97.00
2019-03-19T16:20:23.273Z,97.20
2019-03-19T16:22:52.731Z,97.30
2019-03-19T16:25:22.097Z,97.40
2019-03-19T16:27:51.548Z,97.60
2019-03-19T16:30:21.259Z,97.20
2019-03-19T16:32:50.780Z,97.10
2019-03-19T16:35:20.156Z,97.40
2019-03-19T16:37:49.588Z,97.40
2019-03-19T16:40:23.682Z,98.00
2019-03-19T16:42:53.137Z,98.20
2019-03-19T16:45:22.567Z,98.30
2019-03-19T16:47:51.924Z,98.20
2019-03-19T16:50:22.289Z,99.00
2019-03-19T16:52:51.717Z,98.40
2019-03-19T16:55:22.006Z,98.60
2019-03-19T16:57:51.525Z,99.50
2019-03-19T17:00:25.224Z,98.90
2019-03-19T17:02:54.795Z,99.10
2019-03-19T17:05:24.300Z,99.20
2019-03-19T17:07:53.678Z,99.10
2019-03-19T17:10:26.115Z,99.00
2019-03-19T17:12:55.643Z,99.60
2019-03-19T17:15:26.625Z,99.70
2019-03-19T17:17:56.158Z,99.80
2019-03-19T17:20:27.190Z,99.70
2019-03-19T17:22:56.747Z,99.90
2019-03-19T17:25:27.100Z,99.90
2019-03-19T17:27:57.122Z,99.90
2019-03-19T17:30:30.621Z,99.90
2019-03-19T17:33:00.212Z,99.90
2019-03-19T17:35:29.550Z,99.90
2019-03-19T17:38:03.518Z,99.90
2019-03-19T17:40:41.366Z,99.90
2019-03-19T17:43:11.696Z,99.90
2019-03-19T17:45:41.343Z,99.90
2019-03-19T17:48:16.059Z,99.90
2019-03-19T17:50:45.213Z,99.90
2019-03-19T17:53:14.686Z,99.90
2019-03-19T17:55:44.183Z,99.90
2019-03-19T17:58:13.555Z,99.90
2019-03-19T18:00:44.565Z,99.90
2019-03-19T18:03:13.926Z,99.90
2019-03-19T18:05:43.327Z,99.90
2019-03-19T18:08:12.676Z,99.90
2019-03-19T18:10:42.053Z,99.90
2019-03-19T18:13:11.423Z,99.90
2019-03-19T18:15:40.864Z,99.90
2019-03-19T18:18:10.283Z,99.90
2019-03-19T18:20:39.744Z,99.90
2019-03-19T18:23:09.165Z,99.90
2019-03-19T18:25:38.515Z,99.90
2019-03-19T18:28:08.264Z,99.90
2019-03-19T18:30:37.794Z,99.90
2019-03-19T18:33:08.900Z,99.90
2019-03-19T18:35:38.494Z,99.90
2019-03-19T18:38:07.934Z,99.90
2019-03-19T18:40:37.426Z,99.90
2019-03-19T18:43:06.981Z,99.90
2019-03-19T18:45:36.354Z,99.90
2019-03-19T18:48:06.112Z,99.90
2019-03-19T18:50:36.552Z,99.90
2019-03-19T18:53:06.135Z,99.90
2019-03-19T18:55:35.757Z,99.90
2019-03-19T18:58:06.222Z,99.90
2019-03-19T19:00:35.899Z,99.90
2019-03-19T19:03:05.533Z,99.90
2019-03-19T19:05:35.002Z,99.90
2019-03-19T19:08:05.979Z,99.90
2019-03-19T19:10:35.600Z,99.90
2019-03-19T19:13:05.386Z,99.90
2019-03-19T19:15:34.805Z,99.90
2019-03-19T19:18:04.378Z,99.90
2019-03-19T19:20:33.861Z,99.90
2019-03-19T19:23:03.489Z,99.90
2019-03-19T19:25:32.999Z,99.90
2019-03-19T19:28:02.370Z,99.90
2019-03-19T19:30:32.539Z,99.90
2019-03-19T19:33:02.802Z,99.90
2019-03-19T19:35:32.348Z,99.90
2019-03-19T19:38:03.403Z,99.90
2019-03-19T19:40:36.115Z,99.90
2019-03-19T19:43:05.703Z,99.90
2019-03-19T19:45:35.255Z,99.90
2019-03-19T19:48:04.838Z,99.90
2019-03-19T19:50:34.369Z,99.90
2019-03-19T19:53:04.098Z,99.90
2019-03-19T19:55:33.551Z,99.90
2019-03-19T19:58:03.091Z,99.90
2019-03-19T20:00:32.700Z,99.90
2019-03-19T20:03:11.723Z,99.90
2019-03-19T20:05:34.175Z,99.90
2019-03-19T20:08:05.658Z,99.90
2019-03-19T20:10:35.231Z,99.90
2019-03-19T20:13:04.777Z,99.90
2019-03-19T20:15:35.499Z,99.90
2019-03-19T20:18:05.727Z,99.90
2019-03-19T20:20:35.616Z,99.90
2019-03-19T20:23:08.577Z,99.90
2019-03-19T20:25:38.163Z,99.90
2019-03-19T20:28:07.697Z,99.90
2019-03-19T20:30:37.161Z,99.90
2019-03-19T20:33:09.109Z,99.90
2019-03-19T20:35:41.430Z,99.90
2019-03-19T20:38:11.082Z,99.90
2019-03-19T20:40:43.674Z,99.90
2019-03-19T20:43:13.257Z,99.90
2019-03-19T20:45:42.826Z,99.90
2019-03-19T20:48:12.966Z,99.90
2019-03-19T20:50:42.518Z,99.90
2019-03-19T20:53:12.052Z,99.90
2019-03-19T20:55:41.618Z,99.90
2019-03-19T20:58:12.446Z,99.90
2019-03-19T21:00:44.736Z,99.90
2019-03-19T21:03:14.195Z,99.90
2019-03-19T21:05:43.709Z,99.90
2019-03-19T21:08:22.211Z,99.90
2019-03-19T21:10:51.828Z,99.90
2019-03-19T21:13:22.953Z,99.90
2019-03-19T21:15:52.370Z,99.90
2019-03-19T21:18:21.790Z,99.90
2019-03-19T21:20:51.161Z,99.90
2019-03-19T21:23:22.217Z,99.90
2019-03-19T21:25:51.598Z,99.90
2019-03-19T21:28:20.961Z,99.90
2019-03-19T21:30:50.493Z,99.90
2019-03-19T21:33:19.914Z,99.90
2019-03-19T21:35:49.282Z,99.90
2019-03-19T21:38:18.642Z,99.90
2019-03-19T21:40:48.013Z,99.90
2019-03-19T21:43:17.480Z,99.90
2019-03-19T21:45:46.824Z,99.90
2019-03-19T21:48:17.422Z,99.90
2019-03-19T21:50:46.852Z,99.90
2019-03-19T21:53:16.423Z,99.90
2019-03-19T21:55:45.788Z,99.90
2019-03-19T21:58:15.205Z,99.90
2019-03-19T22:00:44.704Z,99.90
2019-03-19T22:03:14.213Z,99.90
2019-03-19T22:05:43.911Z,99.90
2019-03-19T22:08:15.224Z,99.90
2019-03-19T22:10:44.365Z,99.90
2019-03-19T22:13:13.752Z,99.90
2019-03-19T22:15:46.038Z,99.90
2019-03-19T22:18:15.502Z,99.90
2019-03-19T22:20:44.888Z,99.90
2019-03-19T22:23:14.309Z,99.90
2019-03-19T22:25:43.722Z,99.90
2019-03-19T22:28:13.223Z,99.90
2019-03-19T22:30:42.587Z,99.90
2019-03-19T22:33:11.929Z,99.90
2019-03-19T22:35:41.374Z,99.90
2019-03-19T22:38:10.794Z,99.90
2019-03-19T22:40:40.136Z,99.90
2019-03-19T22:43:10.646Z,99.90
2019-03-19T22:45:39.985Z,99.90
2019-03-19T22:48:09.357Z,99.90
2019-03-19T22:50:38.705Z,99.90
2019-03-19T22:53:08.119Z,99.90
2019-03-19T22:55:37.487Z,99.90
2019-03-19T22:58:06.826Z,99.90
2019-03-19T23:00:37.894Z,99.90
2019-03-19T23:03:09.210Z,99.90
2019-03-19T23:05:38.779Z,99.90
2019-03-19T23:08:08.229Z,99.90
2019-03-19T23:10:37.727Z,99.90
2019-03-19T23:13:07.138Z,99.90
2019-03-19T23:15:36.603Z,99.90
2019-03-19T23:18:06.056Z,99.90
2019-03-19T23:20:36.977Z,99.90
2019-03-19T23:23:06.455Z,99.90
2019-03-19T23:25:35.815Z,99.90
2019-03-19T23:28:05.671Z,99.90
2019-03-19T23:30:35.078Z,99.90
2019-03-19T23:33:06.295Z,99.90
2019-03-19T23:35:35.947Z,99.90
2019-03-19T23:38:05.497Z,99.90
2019-03-19T23:40:37.987Z,99.90
2019-03-19T23:43:07.524Z,99.90
2019-03-19T23:45:36.947Z,99.90
2019-03-19T23:48:06.466Z,99.90
2019-03-19T23:50:38.688Z,99.90
2019-03-19T23:53:07.340Z,99.90
2019-03-19T23:55:36.696Z,99.90
2019-03-19T23:58:06.132Z,99.90
